CheckWX is a tool to help pilots better visualize weather data.  It is not intended as a substitute for an official pre-flight weather briefing.

07:29:56 UTC

KOPF TAF
Miami-Opa Locka Executive Airport
Miami, Florida, USA
KOPF 230527Z 2306/2406 06010KT P6SM BKN040 FM231600 06015KT P6SM SCT050 SCT250 FM240500 06010KT P6SM SCT050 BKN080

Sep-23@
06:00 UTC

Sep-23 @ 06:00 UTC

Sep-23@
16:00 UTC

Sep-23 @ 16:00 UTC

KOPF 230527Z 2306/2406 06010KT P6SM BKN040
Wind
  • 060° at 10 KTS
Cloud Levels
  • Broken at 4,000' AGL

Sep-23@
16:00 UTC

Sep-23 @ 16:00 UTC

Sep-24@
05:00 UTC

Sep-24 @ 05:00 UTC

FM231600 06015KT P6SM SCT050 SCT250

From

From Standard forecast or significant change

Wind
  • 060° at 15 KTS
Cloud Levels
  • Scattered at 5,000' AGL
  • Scattered at 25,000' AGL

Sep-24@
05:00 UTC

Sep-24 @ 05:00 UTC

Sep-24@
06:00 UTC

Sep-24 @ 06:00 UTC

FM240500 06010KT P6SM SCT050 BKN080

From

From Standard forecast or significant change

Wind
  • 060° at 10 KTS
Cloud Levels
  • Scattered at 5,000' AGL
  • Broken at 8,000' AGL